CheckWX is a tool to help pilots better visualize weather data.  It is not intended as a substitute for an official pre-flight weather briefing.

03:05:44 UTC

LJCE TAF
Cerklje Airport
Slovenia
TAF LJCE 252000Z 2521/2606 VRB02KT 9999 SCT045 PROB30 TEMPO 2521/2523 -SHRA BKN040TCU

May-25@
21:00 UTC

May-25 @ 21:00 UTC

May-26@
06:00 UTC

May-26 @ 06:00 UTC

TAF LJCE 252000Z 2521/2606 VRB02KT 9999 SCT045
Wind
  • Variable at 2 KTS
Cloud Levels
  • Scattered at 4,500' AGL

May-25@
21:00 UTC

May-25 @ 21:00 UTC

May-25@
23:00 UTC

May-25 @ 23:00 UTC

PROB30 TEMPO 2521/2523 -SHRA BKN040TCU

Expired

Conditions
Light Showers, Rain
Cloud Levels
  • Broken at 4,000' AGL